Terminal Aerodrome Forecast
Issued by NWS Wilmington, NC

Home | Current Version | Previous Version | Text Only | Print | Product List | Glossary On
Versions: 1 2 3 4 5 6 7 8 9 10 11 12 13 14 15 16 17 18 19 20 21 22 23
000
FTUS42 KILM 031723
TAFFLO
TAF
KFLO 031723Z 0318/0418 06005KT P6SM VCSH BKN014
     FM031900 22004KT 6SM -SHRA BKN020
      TEMPO 0321/0401 3SM SHRA BKN012
     FM040100 03004KT 3SM -RA BR BKN006
     FM041500 35004KT P6SM BKN050=

USA.gov is the U.S. government's official web portal to all federal, state and local government web resources and services.